Startpagina
METAR-TAF:

METAR-TAF

Vliegvelden :

Tiree, Schotland

breedte: 56-30N, lengte: 006-53W, hoogte: 12 m

Actueel weer

Dit bericht is 33 minuten geleden gemaakt, om 12:50 UTC
Wind 15 kt uit het westnoordwesten, variërend tussen het westen en het noordnoordwesten
Temperatuur 12°C
Vochtigheid 71%
Druk 1003 hPa
Zicht 10 km of meer
Weinig wolken op 2600 ft

METAR: EGPU 211250Z 30015KT 260V340 9999 FEW026 12/07 Q1003

Tijdstip: 14:23 (13:23 UTC)

Verwachting

Dit bericht is 2 uur en het 24 minuten geleden gemaakt, om 10:59 UTC
Verwachting geldig van 21 om 12 UTC tot 21 om 18 UTC
Wind 17 kt uit het noordwesten
Zicht 10 km of meer
Verspreide wolken op 2000 ft
Kans 40% :
Tijdelijke
van 21 om 12 UTC tot 21 om 18 UTC
Zicht: 6000 m
regenbuien
Tijdelijke
van 21 om 15 UTC tot 21 om 18 UTC
Wind 20 kt uit het westnoordwesten met uitschieters tot 30 kt

TAF: EGPU 211059Z 2112/2118 32017KT 9999 SCT020 PROB40 TEMPO 2112/2118 6000 SHRA TEMPO 2115/2118 29020G30KT

Waarnemingen en weersverwachtingen van meer dan 4000 vliegvelden (METAR en TAF).

De beschikbare stations zijn de gele en rode punten op de kaart.

Ga met uw muis naar het station om de naam te zien.

Klik dan om waarnemingen en weersverwachtingen te zien.

kaart wijzigen: klik op de groene knoppen met een zwart kruis om in te zoomen, op de groene knop met een streepje om uit te zoomen of op de groene pijlen voor aangrenzende kaarten.


METAR-TAF: